sensor_id;sensor_type;location;lat;lon;timestamp;temperature;humidity
4635;DHT22;2330;48.158;11.816;2022-11-12T00:00:55;4.60;98.50
4635;DHT22;2330;48.158;11.816;2022-11-12T00:03:24;4.40;98.50
4635;DHT22;2330;48.158;11.816;2022-11-12T00:05:51;4.40;98.50
4635;DHT22;2330;48.158;11.816;2022-11-12T00:08:18;4.40;98.50
4635;DHT22;2330;48.158;11.816;2022-11-12T00:10:45;4.40;98.50
4635;DHT22;2330;48.158;11.816;2022-11-12T00:13:12;4.40;98.50
4635;DHT22;2330;48.158;11.816;2022-11-12T00:15:39;4.40;98.50
4635;DHT22;2330;48.158;11.816;2022-11-12T00:18:06;4.30;98.50
4635;DHT22;2330;48.158;11.816;2022-11-12T00:20:33;4.40;98.50
4635;DHT22;2330;48.158;11.816;2022-11-12T00:23:00;4.30;98.50
4635;DHT22;2330;48.158;11.816;2022-11-12T00:25:27;4.40;98.50
4635;DHT22;2330;48.158;11.816;2022-11-12T00:28:00;4.20;98.50
4635;DHT22;2330;48.158;11.816;2022-11-12T00:30:28;4.10;98.50
4635;DHT22;2330;48.158;11.816;2022-11-12T00:32:54;3.90;98.50
4635;DHT22;2330;48.158;11.816;2022-11-12T00:35:21;4.00;98.50
4635;DHT22;2330;48.158;11.816;2022-11-12T00:37:55;3.90;98.50
4635;DHT22;2330;48.158;11.816;2022-11-12T00:40:23;3.90;98.50
4635;DHT22;2330;48.158;11.816;2022-11-12T00:42:55;4.00;98.50
4635;DHT22;2330;48.158;11.816;2022-11-12T00:45:22;4.10;98.50
4635;DHT22;2330;48.158;11.816;2022-11-12T00:47:53;4.10;98.50
4635;DHT22;2330;48.158;11.816;2022-11-12T00:50:20;4.20;98.50
4635;DHT22;2330;48.158;11.816;2022-11-12T00:52:47;4.30;98.50
4635;DHT22;2330;48.158;11.816;2022-11-12T00:55:14;4.30;98.50
4635;DHT22;2330;48.158;11.816;2022-11-12T00:57:40;4.30;98.50
4635;DHT22;2330;48.158;11.816;2022-11-12T01:00:13;4.40;98.50
4635;DHT22;2330;48.158;11.816;2022-11-12T01:02:40;4.30;98.50
4635;DHT22;2330;48.158;11.816;2022-11-12T01:05:15;4.30;98.50
4635;DHT22;2330;48.158;11.816;2022-11-12T01:07:42;4.30;98.50
4635;DHT22;2330;48.158;11.816;2022-11-12T01:10:10;4.40;98.50
4635;DHT22;2330;48.158;11.816;2022-11-12T01:12:37;4.40;98.50
4635;DHT22;2330;48.158;11.816;2022-11-12T01:15:05;4.40;98.50
4635;DHT22;2330;48.158;11.816;2022-11-12T01:17:32;4.40;98.50
4635;DHT22;2330;48.158;11.816;2022-11-12T01:19:59;4.40;98.50
4635;DHT22;2330;48.158;11.816;2022-11-12T01:22:25;4.40;98.50
4635;DHT22;2330;48.158;11.816;2022-11-12T01:24:52;4.30;98.50
4635;DHT22;2330;48.158;11.816;2022-11-12T01:27:19;4.20;98.50
4635;DHT22;2330;48.158;11.816;2022-11-12T01:29:46;4.30;98.50
4635;DHT22;2330;48.158;11.816;2022-11-12T01:32:12;4.30;98.50
4635;DHT22;2330;48.158;11.816;2022-11-12T01:34:39;4.20;98.50
4635;DHT22;2330;48.158;11.816;2022-11-12T01:37:06;4.20;98.50
4635;DHT22;2330;48.158;11.816;2022-11-12T01:39:32;4.30;98.50
4635;DHT22;2330;48.158;11.816;2022-11-12T01:41:59;4.30;98.50
4635;DHT22;2330;48.158;11.816;2022-11-12T01:44:30;4.30;98.50
4635;DHT22;2330;48.158;11.816;2022-11-12T01:49:48;4.40;98.50
4635;DHT22;2330;48.158;11.816;2022-11-12T01:52:39;4.40;98.50
4635;DHT22;2330;48.158;11.816;2022-11-12T01:55:10;4.40;98.50
4635;DHT22;2330;48.158;11.816;2022-11-12T01:57:53;4.20;98.50
4635;DHT22;2330;48.158;11.816;2022-11-12T02:00:22;4.00;98.50
4635;DHT22;2330;48.158;11.816;2022-11-12T02:02:53;4.00;98.50
4635;DHT22;2330;48.158;11.816;2022-11-12T02:05:21;4.10;98.50
4635;DHT22;2330;48.158;11.816;2022-11-12T02:07:49;4.10;98.50
4635;DHT22;2330;48.158;11.816;2022-11-12T02:10:17;4.10;98.50
4635;DHT22;2330;48.158;11.816;2022-11-12T02:12:43;4.00;98.50
4635;DHT22;2330;48.158;11.816;2022-11-12T02:15:29;4.00;98.50
4635;DHT22;2330;48.158;11.816;2022-11-12T02:17:56;4.20;98.50
4635;DHT22;2330;48.158;11.816;2022-11-12T02:20:23;4.20;98.50
4635;DHT22;2330;48.158;11.816;2022-11-12T02:22:50;4.30;98.50
4635;DHT22;2330;48.158;11.816;2022-11-12T02:25:20;4.30;98.50
4635;DHT22;2330;48.158;11.816;2022-11-12T02:27:48;4.30;98.50
4635;DHT22;2330;48.158;11.816;2022-11-12T02:30:18;4.20;98.50
4635;DHT22;2330;48.158;11.816;2022-11-12T02:32:45;4.20;98.50
4635;DHT22;2330;48.158;11.816;2022-11-12T02:35:11;4.10;98.50
4635;DHT22;2330;48.158;11.816;2022-11-12T02:37:38;4.00;98.50
4635;DHT22;2330;48.158;11.816;2022-11-12T02:40:05;3.90;98.50
4635;DHT22;2330;48.158;11.816;2022-11-12T02:42:32;4.00;98.50
4635;DHT22;2330;48.158;11.816;2022-11-12T02:44:59;4.00;98.50
4635;DHT22;2330;48.158;11.816;2022-11-12T02:47:25;4.00;98.50
4635;DHT22;2330;48.158;11.816;2022-11-12T02:49:52;4.00;98.50
4635;DHT22;2330;48.158;11.816;2022-11-12T02:52:19;4.10;98.50
4635;DHT22;2330;48.158;11.816;2022-11-12T02:54:45;4.00;98.50
4635;DHT22;2330;48.158;11.816;2022-11-12T02:57:12;3.90;98.50
4635;DHT22;2330;48.158;11.816;2022-11-12T02:59:39;3.90;98.50
4635;DHT22;2330;48.158;11.816;2022-11-12T03:02:05;3.70;98.50
4635;DHT22;2330;48.158;11.816;2022-11-12T03:04:32;3.70;98.50
4635;DHT22;2330;48.158;11.816;2022-11-12T03:06:59;3.70;98.50
4635;DHT22;2330;48.158;11.816;2022-11-12T03:09:26;3.70;98.50
4635;DHT22;2330;48.158;11.816;2022-11-12T03:11:52;3.60;98.50
4635;DHT22;2330;48.158;11.816;2022-11-12T03:14:20;3.50;98.50
4635;DHT22;2330;48.158;11.816;2022-11-12T03:16:47;3.40;98.50
4635;DHT22;2330;48.158;11.816;2022-11-12T03:19:13;3.20;98.50
4635;DHT22;2330;48.158;11.816;2022-11-12T03:21:40;2.80;98.50
4635;DHT22;2330;48.158;11.816;2022-11-12T03:24:07;2.60;98.50
4635;DHT22;2330;48.158;11.816;2022-11-12T03:26:34;2.50;98.50
4635;DHT22;2330;48.158;11.816;2022-11-12T03:29:02;2.50;98.50
4635;DHT22;2330;48.158;11.816;2022-11-12T03:31:28;2.50;98.50
4635;DHT22;2330;48.158;11.816;2022-11-12T03:33:55;2.50;98.50
4635;DHT22;2330;48.158;11.816;2022-11-12T03:36:22;2.40;98.50
4635;DHT22;2330;48.158;11.816;2022-11-12T03:38:49;2.40;98.50
4635;DHT22;2330;48.158;11.816;2022-11-12T03:41:15;2.40;98.50
4635;DHT22;2330;48.158;11.816;2022-11-12T03:43:42;2.40;98.50
4635;DHT22;2330;48.158;11.816;2022-11-12T03:46:09;2.20;98.50
4635;DHT22;2330;48.158;11.816;2022-11-12T03:48:35;2.20;98.50
4635;DHT22;2330;48.158;11.816;2022-11-12T03:51:02;2.20;98.50
4635;DHT22;2330;48.158;11.816;2022-11-12T03:53:29;2.10;98.50
4635;DHT22;2330;48.158;11.816;2022-11-12T03:55:55;2.10;98.50
4635;DHT22;2330;48.158;11.816;2022-11-12T03:58:23;2.10;98.50
4635;DHT22;2330;48.158;11.816;2022-11-12T04:00:50;2.10;98.50
4635;DHT22;2330;48.158;11.816;2022-11-12T04:03:17;2.10;98.50
4635;DHT22;2330;48.158;11.816;2022-11-12T04:05:43;2.30;98.50
4635;DHT22;2330;48.158;11.816;2022-11-12T04:08:32;2.40;98.50
4635;DHT22;2330;48.158;11.816;2022-11-12T04:11:07;2.50;98.50
4635;DHT22;2330;48.158;11.816;2022-11-12T04:13:35;2.60;98.50
4635;DHT22;2330;48.158;11.816;2022-11-12T04:16:13;2.50;98.50
4635;DHT22;2330;48.158;11.816;2022-11-12T04:19:00;2.60;98.50
4635;DHT22;2330;48.158;11.816;2022-11-12T04:22:09;2.60;98.50
4635;DHT22;2330;48.158;11.816;2022-11-12T04:24:38;2.80;98.50
4635;DHT22;2330;48.158;11.816;2022-11-12T04:27:29;2.90;98.50
4635;DHT22;2330;48.158;11.816;2022-11-12T04:29:56;2.90;98.50
4635;DHT22;2330;48.158;11.816;2022-11-12T04:32:47;2.80;98.50
4635;DHT22;2330;48.158;11.816;2022-11-12T04:35:14;2.80;98.50
4635;DHT22;2330;48.158;11.816;2022-11-12T04:37:41;2.80;98.50
4635;DHT22;2330;48.158;11.816;2022-11-12T04:40:19;2.70;98.50
4635;DHT22;2330;48.158;11.816;2022-11-12T04:43:08;2.70;98.50
4635;DHT22;2330;48.158;11.816;2022-11-12T04:45:54;2.80;98.50
4635;DHT22;2330;48.158;11.816;2022-11-12T04:48:22;2.70;98.50
4635;DHT22;2330;48.158;11.816;2022-11-12T04:50:59;2.70;98.50
4635;DHT22;2330;48.158;11.816;2022-11-12T04:53:27;2.70;98.50
4635;DHT22;2330;48.158;11.816;2022-11-12T04:55:56;2.70;98.50
4635;DHT22;2330;48.158;11.816;2022-11-12T04:58:23;2.60;98.50
4635;DHT22;2330;48.158;11.816;2022-11-12T05:00:50;2.60;98.50
4635;DHT22;2330;48.158;11.816;2022-11-12T05:03:17;2.60;98.50
4635;DHT22;2330;48.158;11.816;2022-11-12T05:05:44;2.60;98.50
4635;DHT22;2330;48.158;11.816;2022-11-12T05:08:11;2.60;98.50
4635;DHT22;2330;48.158;11.816;2022-11-12T05:10:38;2.60;98.50
4635;DHT22;2330;48.158;11.816;2022-11-12T05:13:04;2.50;98.50
4635;DHT22;2330;48.158;11.816;2022-11-12T05:15:31;2.50;98.50
4635;DHT22;2330;48.158;11.816;2022-11-12T05:17:58;2.50;98.50
4635;DHT22;2330;48.158;11.816;2022-11-12T05:20:24;2.50;98.50
4635;DHT22;2330;48.158;11.816;2022-11-12T05:22:51;2.50;98.50
4635;DHT22;2330;48.158;11.816;2022-11-12T05:25:33;2.50;98.50
4635;DHT22;2330;48.158;11.816;2022-11-12T05:27:59;2.40;98.50
4635;DHT22;2330;48.158;11.816;2022-11-12T05:30:26;2.40;98.50
4635;DHT22;2330;48.158;11.816;2022-11-12T05:32:56;2.40;98.50
4635;DHT22;2330;48.158;11.816;2022-11-12T05:35:22;2.40;98.50
4635;DHT22;2330;48.158;11.816;2022-11-12T05:37:49;2.40;98.50
4635;DHT22;2330;48.158;11.816;2022-11-12T05:40:16;2.40;98.50
4635;DHT22;2330;48.158;11.816;2022-11-12T05:42:43;2.40;98.50
4635;DHT22;2330;48.158;11.816;2022-11-12T05:45:11;2.40;98.50
4635;DHT22;2330;48.158;11.816;2022-11-12T05:47:38;2.40;98.50
4635;DHT22;2330;48.158;11.816;2022-11-12T05:50:05;2.40;98.50
4635;DHT22;2330;48.158;11.816;2022-11-12T05:52:32;2.30;98.50
4635;DHT22;2330;48.158;11.816;2022-11-12T05:54:58;2.40;98.50
4635;DHT22;2330;48.158;11.816;2022-11-12T05:57:28;2.50;98.50
4635;DHT22;2330;48.158;11.816;2022-11-12T05:59:55;2.50;98.50
4635;DHT22;2330;48.158;11.816;2022-11-12T06:02:21;2.50;98.50
4635;DHT22;2330;48.158;11.816;2022-11-12T06:04:48;2.40;98.50
4635;DHT22;2330;48.158;11.816;2022-11-12T06:07:15;2.40;98.50
4635;DHT22;2330;48.158;11.816;2022-11-12T06:09:42;2.50;98.50
4635;DHT22;2330;48.158;11.816;2022-11-12T06:12:08;2.50;98.50
4635;DHT22;2330;48.158;11.816;2022-11-12T06:14:35;2.60;98.50
4635;DHT22;2330;48.158;11.816;2022-11-12T06:17:02;2.70;98.50
4635;DHT22;2330;48.158;11.816;2022-11-12T06:19:29;2.70;98.50
4635;DHT22;2330;48.158;11.816;2022-11-12T06:21:56;2.60;98.50
4635;DHT22;2330;48.158;11.816;2022-11-12T06:24:23;2.70;98.50
4635;DHT22;2330;48.158;11.816;2022-11-12T06:26:50;2.70;98.50
4635;DHT22;2330;48.158;11.816;2022-11-12T06:29:16;2.80;98.50
4635;DHT22;2330;48.158;11.816;2022-11-12T06:31:43;2.80;98.50
4635;DHT22;2330;48.158;11.816;2022-11-12T06:34:10;2.80;98.50
4635;DHT22;2330;48.158;11.816;2022-11-12T06:36:38;2.80;98.50
4635;DHT22;2330;48.158;11.816;2022-11-12T06:39:04;2.70;98.50
4635;DHT22;2330;48.158;11.816;2022-11-12T06:41:31;2.80;98.50
4635;DHT22;2330;48.158;11.816;2022-11-12T06:43:58;2.80;98.50
4635;DHT22;2330;48.158;11.816;2022-11-12T06:46:24;2.80;98.50
4635;DHT22;2330;48.158;11.816;2022-11-12T06:48:52;2.70;98.50
4635;DHT22;2330;48.158;11.816;2022-11-12T06:51:20;2.80;98.50
4635;DHT22;2330;48.158;11.816;2022-11-12T06:53:47;2.80;98.50
4635;DHT22;2330;48.158;11.816;2022-11-12T06:56:14;2.80;98.50
4635;DHT22;2330;48.158;11.816;2022-11-12T06:58:41;2.70;98.50
4635;DHT22;2330;48.158;11.816;2022-11-12T07:01:11;2.60;98.50
4635;DHT22;2330;48.158;11.816;2022-11-12T07:03:39;2.60;98.50
4635;DHT22;2330;48.158;11.816;2022-11-12T07:06:08;2.60;98.50
4635;DHT22;2330;48.158;11.816;2022-11-12T07:08:35;2.70;98.50
4635;DHT22;2330;48.158;11.816;2022-11-12T07:11:02;2.70;98.50
4635;DHT22;2330;48.158;11.816;2022-11-12T07:13:31;2.80;98.50
4635;DHT22;2330;48.158;11.816;2022-11-12T07:16:01;2.80;98.50
4635;DHT22;2330;48.158;11.816;2022-11-12T07:18:29;2.80;98.50
4635;DHT22;2330;48.158;11.816;2022-11-12T07:21:04;2.90;98.50
4635;DHT22;2330;48.158;11.816;2022-11-12T07:23:32;2.80;98.50
4635;DHT22;2330;48.158;11.816;2022-11-12T07:26:04;2.60;98.50
4635;DHT22;2330;48.158;11.816;2022-11-12T07:28:32;2.50;98.50
4635;DHT22;2330;48.158;11.816;2022-11-12T07:31:01;2.60;98.50
4635;DHT22;2330;48.158;11.816;2022-11-12T07:33:28;2.70;98.50
4635;DHT22;2330;48.158;11.816;2022-11-12T07:36:00;2.80;98.50
4635;DHT22;2330;48.158;11.816;2022-11-12T07:38:28;2.90;98.50
4635;DHT22;2330;48.158;11.816;2022-11-12T07:41:03;2.90;98.50
4635;DHT22;2330;48.158;11.816;2022-11-12T07:43:35;2.90;98.50
4635;DHT22;2330;48.158;11.816;2022-11-12T07:46:05;3.00;98.50
4635;DHT22;2330;48.158;11.816;2022-11-12T07:48:37;3.00;98.50
4635;DHT22;2330;48.158;11.816;2022-11-12T07:51:15;3.10;98.50
4635;DHT22;2330;48.158;11.816;2022-11-12T07:53:43;3.10;98.50
4635;DHT22;2330;48.158;11.816;2022-11-12T07:56:15;3.20;98.50
4635;DHT22;2330;48.158;11.816;2022-11-12T07:58:43;3.20;98.50
4635;DHT22;2330;48.158;11.816;2022-11-12T08:03:41;3.20;98.50
4635;DHT22;2330;48.158;11.816;2022-11-12T08:06:08;3.10;98.50
4635;DHT22;2330;48.158;11.816;2022-11-12T08:08:34;3.20;98.50
4635;DHT22;2330;48.158;11.816;2022-11-12T08:11:01;3.30;98.50
4635;DHT22;2330;48.158;11.816;2022-11-12T08:13:28;3.30;98.50
4635;DHT22;2330;48.158;11.816;2022-11-12T08:15:58;3.40;98.50
4635;DHT22;2330;48.158;11.816;2022-11-12T08:18:26;3.30;98.50
4635;DHT22;2330;48.158;11.816;2022-11-12T08:21:00;3.40;98.50
4635;DHT22;2330;48.158;11.816;2022-11-12T08:23:28;3.30;98.50
4635;DHT22;2330;48.158;11.816;2022-11-12T08:25:59;3.20;98.50
4635;DHT22;2330;48.158;11.816;2022-11-12T08:28:34;3.20;98.50
4635;DHT22;2330;48.158;11.816;2022-11-12T08:31:18;3.20;98.50
4635;DHT22;2330;48.158;11.816;2022-11-12T08:33:45;3.30;98.50
4635;DHT22;2330;48.158;11.816;2022-11-12T08:36:13;3.50;98.50
4635;DHT22;2330;48.158;11.816;2022-11-12T08:38:41;3.80;98.50
4635;DHT22;2330;48.158;11.816;2022-11-12T08:41:10;3.90;98.50
4635;DHT22;2330;48.158;11.816;2022-11-12T08:43:39;4.00;98.50
4635;DHT22;2330;48.158;11.816;2022-11-12T08:46:06;4.00;98.50
4635;DHT22;2330;48.158;11.816;2022-11-12T08:48:35;4.10;98.50
4635;DHT22;2330;48.158;11.816;2022-11-12T08:51:03;4.00;98.50
4635;DHT22;2330;48.158;11.816;2022-11-12T08:53:33;3.90;98.50
4635;DHT22;2330;48.158;11.816;2022-11-12T08:56:00;3.90;98.50
4635;DHT22;2330;48.158;11.816;2022-11-12T08:58:27;3.90;98.50
4635;DHT22;2330;48.158;11.816;2022-11-12T09:00:55;4.00;98.50
4635;DHT22;2330;48.158;11.816;2022-11-12T09:03:24;3.90;98.50
4635;DHT22;2330;48.158;11.816;2022-11-12T09:05:52;4.10;98.50
4635;DHT22;2330;48.158;11.816;2022-11-12T09:08:22;4.20;98.50
4635;DHT22;2330;48.158;11.816;2022-11-12T09:10:50;4.40;98.50
4635;DHT22;2330;48.158;11.816;2022-11-12T09:13:17;4.40;98.50
4635;DHT22;2330;48.158;11.816;2022-11-12T09:15:45;4.20;98.50
4635;DHT22;2330;48.158;11.816;2022-11-12T09:18:15;4.20;98.50
4635;DHT22;2330;48.158;11.816;2022-11-12T09:20:42;4.20;98.50
4635;DHT22;2330;48.158;11.816;2022-11-12T09:23:11;3.80;98.50
4635;DHT22;2330;48.158;11.816;2022-11-12T09:25:39;3.70;98.50
4635;DHT22;2330;48.158;11.816;2022-11-12T09:28:13;3.70;98.50
4635;DHT22;2330;48.158;11.816;2022-11-12T09:30:46;3.90;98.50
4635;DHT22;2330;48.158;11.816;2022-11-12T09:33:14;4.20;98.50
4635;DHT22;2330;48.158;11.816;2022-11-12T09:35:41;4.40;98.50
4635;DHT22;2330;48.158;11.816;2022-11-12T09:38:08;4.50;98.50
4635;DHT22;2330;48.158;11.816;2022-11-12T09:46:00;4.80;98.50
4635;DHT22;2330;48.158;11.816;2022-11-12T09:48:52;4.90;98.50
4635;DHT22;2330;48.158;11.816;2022-11-12T09:51:27;4.90;98.50
4635;DHT22;2330;48.158;11.816;2022-11-12T09:53:57;5.00;98.50
4635;DHT22;2330;48.158;11.816;2022-11-12T09:56:25;5.20;98.50
4635;DHT22;2330;48.158;11.816;2022-11-12T09:58:53;5.20;98.50
4635;DHT22;2330;48.158;11.816;2022-11-12T10:01:44;5.30;98.50
4635;DHT22;2330;48.158;11.816;2022-11-12T10:04:22;5.40;98.50
4635;DHT22;2330;48.158;11.816;2022-11-12T10:07:05;5.50;98.50
4635;DHT22;2330;48.158;11.816;2022-11-12T10:09:58;5.60;98.50
4635;DHT22;2330;48.158;11.816;2022-11-12T10:15:31;5.60;98.50
4635;DHT22;2330;48.158;11.816;2022-11-12T10:23:46;5.30;98.50
4635;DHT22;2330;48.158;11.816;2022-11-12T10:26:16;5.20;98.50
4635;DHT22;2330;48.158;11.816;2022-11-12T10:29:00;5.30;98.50
4635;DHT22;2330;48.158;11.816;2022-11-12T10:31:28;5.40;98.50
4635;DHT22;2330;48.158;11.816;2022-11-12T10:36:52;5.50;98.50
4635;DHT22;2330;48.158;11.816;2022-11-12T10:39:34;5.60;98.50
4635;DHT22;2330;48.158;11.816;2022-11-12T10:42:10;5.80;98.50
4635;DHT22;2330;48.158;11.816;2022-11-12T10:44:38;6.00;98.50
4635;DHT22;2330;48.158;11.816;2022-11-12T10:47:24;6.00;98.50
4635;DHT22;2330;48.158;11.816;2022-11-12T10:50:14;6.20;98.50
4635;DHT22;2330;48.158;11.816;2022-11-12T10:52:59;6.30;98.50
4635;DHT22;2330;48.158;11.816;2022-11-12T10:55:32;6.40;98.50
4635;DHT22;2330;48.158;11.816;2022-11-12T10:58:09;6.50;98.50
4635;DHT22;2330;48.158;11.816;2022-11-12T11:03:23;6.40;98.50
4635;DHT22;2330;48.158;11.816;2022-11-12T11:06:03;6.50;98.50
4635;DHT22;2330;48.158;11.816;2022-11-12T11:08:40;6.60;98.50
4635;DHT22;2330;48.158;11.816;2022-11-12T11:13:51;6.70;98.50
4635;DHT22;2330;48.158;11.816;2022-11-12T11:16:28;6.80;98.50
4635;DHT22;2330;48.158;11.816;2022-11-12T11:19:01;6.80;98.50
4635;DHT22;2330;48.158;11.816;2022-11-12T11:21:30;7.00;98.50
4635;DHT22;2330;48.158;11.816;2022-11-12T11:32:56;7.20;98.50
4635;DHT22;2330;48.158;11.816;2022-11-12T11:35:51;7.50;98.50
4635;DHT22;2330;48.158;11.816;2022-11-12T11:46:15;7.80;98.50
4635;DHT22;2330;48.158;11.816;2022-11-12T11:51:53;8.00;98.50
4635;DHT22;2330;48.158;11.816;2022-11-12T11:56:57;8.50;98.50
4635;DHT22;2330;48.158;11.816;2022-11-12T12:02:31;8.80;98.50
4635;DHT22;2330;48.158;11.816;2022-11-12T12:08:10;9.30;98.50
4635;DHT22;2330;48.158;11.816;2022-11-12T12:17:01;9.60;98.50
4635;DHT22;2330;48.158;11.816;2022-11-12T12:22:03;9.90;98.50
4635;DHT22;2330;48.158;11.816;2022-11-12T12:24:36;9.70;98.50
4635;DHT22;2330;48.158;11.816;2022-11-12T12:27:14;9.80;98.50
4635;DHT22;2330;48.158;11.816;2022-11-12T12:29:46;9.60;98.50
4635;DHT22;2330;48.158;11.816;2022-11-12T12:32:24;9.50;98.50
4635;DHT22;2330;48.158;11.816;2022-11-12T12:35:01;9.70;98.50
4635;DHT22;2330;48.158;11.816;2022-11-12T12:37:40;9.70;98.50
4635;DHT22;2330;48.158;11.816;2022-11-12T12:43:51;9.80;98.50
4635;DHT22;2330;48.158;11.816;2022-11-12T12:46:22;9.80;98.50
4635;DHT22;2330;48.158;11.816;2022-11-12T12:48:51;9.80;98.50
4635;DHT22;2330;48.158;11.816;2022-11-12T12:51:20;9.80;98.50
4635;DHT22;2330;48.158;11.816;2022-11-12T12:53:47;9.80;98.50
4635;DHT22;2330;48.158;11.816;2022-11-12T12:58:44;9.70;98.50
4635;DHT22;2330;48.158;11.816;2022-11-12T13:04:02;9.70;98.50
4635;DHT22;2330;48.158;11.816;2022-11-12T13:06:33;9.70;98.50
4635;DHT22;2330;48.158;11.816;2022-11-12T13:09:06;9.80;98.50
4635;DHT22;2330;48.158;11.816;2022-11-12T13:11:47;9.80;98.50
4635;DHT22;2330;48.158;11.816;2022-11-12T13:16:58;9.90;98.50
4635;DHT22;2330;48.158;11.816;2022-11-12T13:19:35;9.90;98.50
4635;DHT22;2330;48.158;11.816;2022-11-12T13:32:56;9.60;98.50
4635;DHT22;2330;48.158;11.816;2022-11-12T13:40:40;9.50;98.50
4635;DHT22;2330;48.158;11.816;2022-11-12T13:45:56;9.30;98.50
4635;DHT22;2330;48.158;11.816;2022-11-12T13:48:28;9.20;98.50
4635;DHT22;2330;48.158;11.816;2022-11-12T13:50:58;9.20;98.50
4635;DHT22;2330;48.158;11.816;2022-11-12T13:53:30;9.20;98.50
4635;DHT22;2330;48.158;11.816;2022-11-12T13:55:57;9.10;98.50
4635;DHT22;2330;48.158;11.816;2022-11-12T13:58:27;9.00;98.50
4635;DHT22;2330;48.158;11.816;2022-11-12T14:01:05;8.90;98.50
4635;DHT22;2330;48.158;11.816;2022-11-12T14:03:53;8.80;98.50
4635;DHT22;2330;48.158;11.816;2022-11-12T14:06:30;8.80;98.50
4635;DHT22;2330;48.158;11.816;2022-11-12T14:09:16;8.70;98.50
4635;DHT22;2330;48.158;11.816;2022-11-12T14:17:52;8.50;98.50
4635;DHT22;2330;48.158;11.816;2022-11-12T14:20:25;8.40;98.50
4635;DHT22;2330;48.158;11.816;2022-11-12T14:22:56;8.30;98.50
4635;DHT22;2330;48.158;11.816;2022-11-12T14:25:30;8.20;98.50
4635;DHT22;2330;48.158;11.816;2022-11-12T14:27:57;8.10;98.50
4635;DHT22;2330;48.158;11.816;2022-11-12T14:30:28;8.10;98.50
4635;DHT22;2330;48.158;11.816;2022-11-12T14:33:00;8.00;98.50
4635;DHT22;2330;48.158;11.816;2022-11-12T14:35:37;7.90;98.50
4635;DHT22;2330;48.158;11.816;2022-11-12T14:38:28;7.80;98.50
4635;DHT22;2330;48.158;11.816;2022-11-12T14:41:01;7.80;98.50
4635;DHT22;2330;48.158;11.816;2022-11-12T14:44:01;7.60;98.50
4635;DHT22;2330;48.158;11.816;2022-11-12T14:46:49;7.60;98.50
4635;DHT22;2330;48.158;11.816;2022-11-12T14:49:21;7.50;98.50
4635;DHT22;2330;48.158;11.816;2022-11-12T14:52:05;7.50;98.50
4635;DHT22;2330;48.158;11.816;2022-11-12T14:54:37;7.50;98.50
4635;DHT22;2330;48.158;11.816;2022-11-12T14:57:06;7.40;98.50
4635;DHT22;2330;48.158;11.816;2022-11-12T14:59:37;7.30;98.50
4635;DHT22;2330;48.158;11.816;2022-11-12T15:02:08;7.30;98.50
4635;DHT22;2330;48.158;11.816;2022-11-12T15:05:00;7.30;98.50
4635;DHT22;2330;48.158;11.816;2022-11-12T15:07:34;7.30;98.50
4635;DHT22;2330;48.158;11.816;2022-11-12T15:13:00;7.20;98.50
4635;DHT22;2330;48.158;11.816;2022-11-12T15:15:27;7.20;98.50
4635;DHT22;2330;48.158;11.816;2022-11-12T15:17:59;7.10;98.50
4635;DHT22;2330;48.158;11.816;2022-11-12T15:20:26;7.10;98.50
4635;DHT22;2330;48.158;11.816;2022-11-12T15:22:56;7.10;98.50
4635;DHT22;2330;48.158;11.816;2022-11-12T15:25:26;7.10;98.50
4635;DHT22;2330;48.158;11.816;2022-11-12T15:27:53;7.00;98.50
4635;DHT22;2330;48.158;11.816;2022-11-12T15:30:24;7.00;98.50
4635;DHT22;2330;48.158;11.816;2022-11-12T15:35:41;6.90;98.50
4635;DHT22;2330;48.158;11.816;2022-11-12T15:38:20;6.90;98.50
4635;DHT22;2330;48.158;11.816;2022-11-12T15:40:52;6.90;98.50
4635;DHT22;2330;48.158;11.816;2022-11-12T15:43:28;6.90;98.50
4635;DHT22;2330;48.158;11.816;2022-11-12T15:45:55;6.90;98.50
4635;DHT22;2330;48.158;11.816;2022-11-12T15:48:23;6.90;98.50
4635;DHT22;2330;48.158;11.816;2022-11-12T15:50:49;6.90;98.50
4635;DHT22;2330;48.158;11.816;2022-11-12T15:53:16;6.90;98.50
4635;DHT22;2330;48.158;11.816;2022-11-12T15:55:44;6.90;98.50
4635;DHT22;2330;48.158;11.816;2022-11-12T15:58:19;6.80;98.50
4635;DHT22;2330;48.158;11.816;2022-11-12T16:00:46;6.80;98.50
4635;DHT22;2330;48.158;11.816;2022-11-12T16:03:18;6.70;98.50
4635;DHT22;2330;48.158;11.816;2022-11-12T16:05:45;6.60;98.50
4635;DHT22;2330;48.158;11.816;2022-11-12T16:08:12;6.60;98.50
4635;DHT22;2330;48.158;11.816;2022-11-12T16:10:39;6.60;98.50
4635;DHT22;2330;48.158;11.816;2022-11-12T16:13:15;6.60;98.50
4635;DHT22;2330;48.158;11.816;2022-11-12T16:15:44;6.60;98.50
4635;DHT22;2330;48.158;11.816;2022-11-12T16:18:11;6.60;98.50
4635;DHT22;2330;48.158;11.816;2022-11-12T16:20:38;6.60;98.50
4635;DHT22;2330;48.158;11.816;2022-11-12T16:23:04;6.60;98.50
4635;DHT22;2330;48.158;11.816;2022-11-12T16:25:33;6.50;98.50
4635;DHT22;2330;48.158;11.816;2022-11-12T16:28:01;6.50;98.50
4635;DHT22;2330;48.158;11.816;2022-11-12T16:30:32;6.50;98.50
4635;DHT22;2330;48.158;11.816;2022-11-12T16:33:00;6.60;98.50
4635;DHT22;2330;48.158;11.816;2022-11-12T16:35:28;6.50;98.50
4635;DHT22;2330;48.158;11.816;2022-11-12T16:37:57;6.50;98.50
4635;DHT22;2330;48.158;11.816;2022-11-12T16:40:27;6.50;98.50
4635;DHT22;2330;48.158;11.816;2022-11-12T16:42:54;6.50;98.50
4635;DHT22;2330;48.158;11.816;2022-11-12T16:45:23;6.50;98.50
4635;DHT22;2330;48.158;11.816;2022-11-12T16:47:52;6.50;98.50
4635;DHT22;2330;48.158;11.816;2022-11-12T16:50:22;6.50;98.50
4635;DHT22;2330;48.158;11.816;2022-11-12T16:52:49;6.50;98.50
4635;DHT22;2330;48.158;11.816;2022-11-12T16:55:15;6.50;98.50
4635;DHT22;2330;48.158;11.816;2022-11-12T16:57:42;6.50;98.50
4635;DHT22;2330;48.158;11.816;2022-11-12T17:00:14;6.50;98.50
4635;DHT22;2330;48.158;11.816;2022-11-12T17:02:41;6.50;98.50
4635;DHT22;2330;48.158;11.816;2022-11-12T17:05:16;6.50;98.50
4635;DHT22;2330;48.158;11.816;2022-11-12T17:07:43;6.40;98.50
4635;DHT22;2330;48.158;11.816;2022-11-12T17:10:10;6.30;98.50
4635;DHT22;2330;48.158;11.816;2022-11-12T17:12:37;6.20;98.50
4635;DHT22;2330;48.158;11.816;2022-11-12T17:15:05;6.10;98.50
4635;DHT22;2330;48.158;11.816;2022-11-12T17:17:32;6.10;98.50
4635;DHT22;2330;48.158;11.816;2022-11-12T17:19:59;6.10;98.50
4635;DHT22;2330;48.158;11.816;2022-11-12T17:22:26;6.10;98.50
4635;DHT22;2330;48.158;11.816;2022-11-12T17:24:52;6.00;98.50
4635;DHT22;2330;48.158;11.816;2022-11-12T17:27:19;5.90;98.50
4635;DHT22;2330;48.158;11.816;2022-11-12T17:29:45;5.80;98.50
4635;DHT22;2330;48.158;11.816;2022-11-12T17:32:12;5.80;98.50
4635;DHT22;2330;48.158;11.816;2022-11-12T17:34:39;5.80;98.50
4635;DHT22;2330;48.158;11.816;2022-11-12T17:37:06;5.80;98.50
4635;DHT22;2330;48.158;11.816;2022-11-12T17:39:32;5.70;98.50
4635;DHT22;2330;48.158;11.816;2022-11-12T17:41:59;5.50;98.50
4635;DHT22;2330;48.158;11.816;2022-11-12T17:44:26;5.50;98.50
4635;DHT22;2330;48.158;11.816;2022-11-12T17:46:52;5.60;98.50
4635;DHT22;2330;48.158;11.816;2022-11-12T17:49:19;5.40;98.50
4635;DHT22;2330;48.158;11.816;2022-11-12T17:51:46;5.30;98.50
4635;DHT22;2330;48.158;11.816;2022-11-12T17:54:12;5.20;98.50
4635;DHT22;2330;48.158;11.816;2022-11-12T17:56:39;5.20;98.50
4635;DHT22;2330;48.158;11.816;2022-11-12T17:59:06;5.30;98.50
4635;DHT22;2330;48.158;11.816;2022-11-12T18:01:33;5.30;98.50
4635;DHT22;2330;48.158;11.816;2022-11-12T18:04:00;5.40;98.50
4635;DHT22;2330;48.158;11.816;2022-11-12T18:06:29;5.40;98.50
4635;DHT22;2330;48.158;11.816;2022-11-12T18:09:02;5.40;98.50